Time;durP1;ratioP1;P1;durP2;ratioP2;P2;SDS_P1;SDS_P2;PMS_P1;PMS_P2;Temp;Humidity;BMP_temperature;BMP_pressure;BME280_temperature;BME280_humidity;BME280_pressure;Samples;Min_cycle;Max_cycle;Signal;HPM_P1;HPM_P2
2023/04/24 00:00:17;;;;;;;14.82;6.22;;;11.30;99.90;;;10.45;100.00;96342.88;5009911;28;20837;-75
2023/04/24 00:02:46;;;;;;;13.65;5.47;;;11.30;99.90;;;10.39;100.00;96344.78;5011207;28;20405;-75
2023/04/24 00:05:14;;;;;;;14.02;6.00;;;11.30;99.90;;;10.47;100.00;96344.19;5010872;28;20404;-75
2023/04/24 00:07:40;;;;;;;11.65;5.75;;;11.30;99.90;;;10.49;100.00;96335.97;5010742;28;20867;-75
2023/04/24 00:10:08;;;;;;;14.00;5.57;;;11.40;99.90;;;10.49;100.00;96343.91;5009389;28;20952;-75
2023/04/24 00:12:34;;;;;;;13.48;5.30;;;11.30;99.90;;;10.50;100.00;96357.94;5010679;28;20439;-75
2023/04/24 00:15:01;;;;;;;11.07;4.90;;;11.30;99.90;;;10.42;100.00;96354.81;5010277;28;20853;-75
2023/04/24 00:17:28;;;;;;;10.55;5.30;;;11.30;99.90;;;10.44;100.00;96349.25;5010529;28;20404;-75
2023/04/24 00:19:58;;;;;;;9.32;5.30;;;11.30;99.90;;;10.42;100.00;96338.16;5010492;28;20423;-75
2023/04/24 00:22:24;;;;;;;11.10;5.00;;;11.30;99.90;;;10.47;100.00;96344.19;5010563;28;20405;-75
2023/04/24 00:24:50;;;;;;;9.32;5.00;;;11.30;99.90;;;10.51;100.00;96348.94;5010501;28;20397;-75
2023/04/24 00:27:16;;;;;;;11.13;4.82;;;11.40;99.90;;;10.53;100.00;96360.03;5010725;28;20448;-75
2023/04/24 00:29:42;;;;;;;9.68;4.90;;;11.40;99.90;;;10.51;100.00;96354.25;5010479;28;20507;-75
2023/04/24 00:32:08;;;;;;;11.93;5.20;;;11.40;99.90;;;10.53;100.00;96360.81;5025717;28;20964;-75
2023/04/24 00:34:35;;;;;;;10.20;4.80;;;11.40;99.90;;;10.49;100.00;96362.44;5010465;28;20507;-76
2023/04/24 00:37:01;;;;;;;8.15;4.45;;;11.30;99.90;;;10.47;100.00;96361.91;5009175;28;20431;-75
2023/04/24 00:39:27;;;;;;;10.18;4.80;;;11.30;99.90;;;10.48;100.00;96356.34;5009929;28;20899;-75
2023/04/24 00:41:53;;;;;;;12.83;5.07;;;11.40;99.90;;;10.54;100.00;96346.53;5010607;28;20405;-75
2023/04/24 00:44:19;;;;;;;12.27;5.30;;;11.40;99.90;;;10.60;100.00;96345.41;5010303;28;20393;-75
2023/04/24 00:46:47;;;;;;;14.77;5.00;;;11.40;99.90;;;10.57;100.00;96343.34;5010498;28;20492;-75
2023/04/24 00:49:14;;;;;;;10.48;4.72;;;11.40;99.90;;;10.58;100.00;96344.91;5010300;28;20451;-75
2023/04/24 00:51:45;;;;;;;10.20;4.40;;;11.40;99.90;;;10.57;100.00;96339.91;5010201;28;20919;-75
2023/04/24 00:54:11;;;;;;;13.20;4.85;;;11.40;99.90;;;10.65;100.00;96332.16;5010286;28;20426;-75
2023/04/24 00:56:37;;;;;;;10.98;4.60;;;11.50;99.90;;;10.62;100.00;96342.50;5010569;28;20404;-75
2023/04/24 00:59:04;;;;;;;13.05;4.65;;;11.40;99.90;;;10.57;100.00;96338.03;5014025;28;20397;-74
2023/04/24 01:01:30;;;;;;;12.65;4.97;;;11.40;99.90;;;10.56;100.00;96338.31;5014996;28;20491;-75
2023/04/24 01:03:57;;;;;;;17.00;4.75;;;11.40;99.90;;;10.60;100.00;96320.84;5014153;28;20428;-75
2023/04/24 01:06:27;;;;;;;11.07;4.70;;;11.40;99.90;;;10.58;100.00;96330.91;5014027;28;20939;-75
2023/04/24 01:08:55;;;;;;;10.93;4.20;;;11.50;99.90;;;10.55;100.00;96326.16;5012697;28;20447;-75
2023/04/24 01:11:21;;;;;;;14.65;4.35;;;11.30;99.90;;;10.47;100.00;96333.59;5013693;28;20404;-75
2023/04/24 01:13:48;;;;;;;11.73;4.10;;;11.40;99.90;;;10.52;100.00;96335.44;5013631;28;20420;-75
2023/04/24 01:16:14;;;;;;;14.93;4.30;;;11.40;99.90;;;10.57;100.00;96318.72;5029144;28;20440;-75
2023/04/24 01:18:41;;;;;;;10.38;4.50;;;11.40;99.90;;;10.61;100.00;96323.19;5013832;28;20491;-75
2023/04/24 01:21:09;;;;;;;10.75;4.55;;;11.50;99.90;;;10.57;100.00;96324.03;5013729;28;20487;-75
2023/04/24 01:23:36;;;;;;;13.52;4.95;;;11.40;99.90;;;10.54;100.00;96316.63;5013682;28;20393;-75
2023/04/24 01:26:02;;;;;;;12.23;4.53;;;11.40;99.90;;;10.55;100.00;96312.91;5013616;28;20409;-74
2023/04/24 01:28:28;;;;;;;12.57;4.85;;;11.40;99.90;;;10.56;100.00;96314.50;5013701;28;20443;-75
2023/04/24 01:30:55;;;;;;;10.18;4.50;;;11.40;99.90;;;10.47;100.00;96314.28;5012383;28;20882;-75
2023/04/24 01:33:22;;;;;;;15.18;4.82;;;11.30;99.90;;;10.39;100.00;96314.88;5013569;28;20494;-75
2023/04/24 01:35:49;;;;;;;7.90;4.27;;;11.30;99.90;;;10.34;100.00;96312.28;5013624;28;20409;-75
2023/04/24 01:38:15;;;;;;;10.60;4.57;;;11.30;99.90;;;10.31;100.00;96308.31;5013435;28;20401;-75
2023/04/24 01:40:42;;;;;;;9.57;4.50;;;11.20;99.90;;;10.25;100.00;96312.06;5013218;28;20405;-75
2023/04/24 01:43:08;;;;;;;13.40;5.35;;;11.10;99.90;;;10.30;100.00;96308.63;5013233;28;20875;-75
2023/04/24 01:45:34;;;;;;;11.57;5.20;;;11.10;99.90;;;10.26;100.00;96297.00;5013330;28;20982;-74
2023/04/24 01:48:00;;;;;;;10.55;5.18;;;11.10;99.90;;;10.25;100.00;96298.84;5013305;28;20413;-75
2023/04/24 01:50:26;;;;;;;12.52;4.65;;;11.10;99.90;;;10.26;100.00;96297.78;5012938;28;20894;-75
2023/04/24 01:52:52;;;;;;;12.18;4.97;;;11.10;99.90;;;10.29;100.00;96299.09;5013188;28;20404;-75
2023/04/24 01:55:18;;;;;;;12.00;5.20;;;11.20;99.90;;;10.29;100.00;96301.75;5012856;28;20412;-75
2023/04/24 01:57:46;;;;;;;11.07;4.90;;;11.20;99.90;;;10.27;100.00;96303.88;5013082;28;20409;-75
2023/04/24 02:00:12;;;;;;;16.17;5.28;;;11.20;99.90;;;10.28;100.00;96302.81;5012897;28;20431;-75
2023/04/24 02:02:40;;;;;;;11.40;4.90;;;11.10;99.90;;;10.26;100.00;96304.94;5012951;28;20408;-75
2023/04/24 02:05:07;;;;;;;14.82;5.18;;;11.10;99.90;;;10.17;100.00;96304.72;5012932;28;20909;-76
2023/04/24 02:07:33;;;;;;;11.90;5.10;;;11.10;99.90;;;10.21;100.00;96315.56;5012960;28;20409;-75
2023/04/24 02:09:59;;;;;;;11.73;4.78;;;11.10;99.90;;;10.14;100.00;96309.75;5012467;28;20471;-75
2023/04/24 02:12:25;;;;;;;11.88;4.97;;;11.00;99.90;;;10.17;100.00;96306.53;5012748;28;20412;-75
2023/04/24 02:14:52;;;;;;;8.02;4.70;;;11.10;99.90;;;10.19;100.00;96304.44;5011392;28;20779;-75
2023/04/24 02:17:19;;;;;;;13.45;5.20;;;11.00;99.90;;;10.20;100.00;96298.88;5011481;28;20739;-75
2023/04/24 02:19:45;;;;;;;8.57;4.30;;;11.10;99.90;;;10.23;100.00;96300.19;5012486;28;20404;-75
2023/04/24 02:22:11;;;;;;;11.37;5.03;;;11.10;99.90;;;10.31;100.00;96300.38;5013341;28;20409;-74
2023/04/24 02:24:37;;;;;;;16.38;4.75;;;11.10;99.90;;;10.25;100.00;96296.19;5012745;28;20909;-75
2023/04/24 02:27:03;;;;;;;12.35;5.00;;;11.20;99.90;;;10.33;100.00;96306.19;5012603;28;20536;-75
2023/04/24 02:29:30;;;;;;;11.02;4.90;;;11.20;99.90;;;10.32;100.00;96301.97;5012679;28;20413;-75
2023/04/24 02:31:57;;;;;;;8.50;4.57;;;11.20;99.90;;;10.35;100.00;96309.38;5012496;28;20496;-75
2023/04/24 02:34:23;;;;;;;10.50;4.30;;;11.20;99.90;;;10.36;100.00;96312.81;5012219;28;20416;-75
2023/04/24 02:36:49;;;;;;;8.87;4.20;;;11.20;99.90;;;10.42;100.00;96323.06;5012426;28;20483;-75
2023/04/24 02:39:18;;;;;;;9.90;4.32;;;11.30;99.90;;;10.38;100.00;96319.38;5012223;28;20419;-75
2023/04/24 02:41:44;;;;;;;11.82;4.28;;;11.20;99.90;;;10.39;100.00;96328.09;5012099;28;20478;-75
2023/04/24 02:44:10;;;;;;;12.68;4.25;;;11.30;99.90;;;10.31;100.00;96320.75;5012116;28;21016;-76
2023/04/24 02:46:36;;;;;;;8.77;4.50;;;11.20;99.90;;;10.26;100.00;96320.81;5012282;28;20771;-76
2023/04/24 02:49:03;;;;;;;16.55;5.00;;;11.10;99.90;;;10.19;100.00;96322.97;5012215;28;20447;-76
2023/04/24 02:51:29;;;;;;;11.27;4.50;;;11.10;99.90;;;10.08;100.00;96322.19;5010862;28;20496;-77
2023/04/24 02:53:55;;;;;;;15.30;4.90;;;11.00;99.90;;;10.05;100.00;96306.88;5011790;28;20424;-76
2023/04/24 02:56:21;;;;;;;16.92;5.63;;;11.00;99.90;;;10.05;100.00;96305.03;5012060;28;20415;-77
2023/04/24 02:58:47;;;;;;;16.25;5.22;;;10.90;99.90;;;10.00;100.00;96297.13;5011947;28;20459;-76
2023/04/24 03:01:13;;;;;;;13.05;5.20;;;10.90;99.90;;;9.95;100.00;96299.78;5011822;28;20420;-76
2023/04/24 03:03:39;;;;;;;13.23;5.40;;;10.90;99.90;;;9.92;100.00;96300.34;5011940;28;20401;-76
2023/04/24 03:06:07;;;;;;;10.43;5.60;;;10.90;99.90;;;9.89;100.00;96300.09;5011722;28;20744;-76
2023/04/24 03:08:33;;;;;;;15.15;5.53;;;10.80;99.90;;;9.96;100.00;96290.00;5011816;28;20763;-76
2023/04/24 03:11:00;;;;;;;18.55;5.53;;;10.90;99.90;;;9.82;100.00;96286.41;5010285;28;20412;-76
2023/04/24 03:13:26;;;;;;;14.65;5.72;;;10.80;99.90;;;9.77;100.00;96283.78;5026951;28;20460;-76
2023/04/24 03:15:52;;;;;;;11.90;5.65;;;10.70;99.90;;;9.76;100.00;96292.78;5011670;28;20447;-76
2023/04/24 03:18:18;;;;;;;11.23;5.07;;;10.70;99.90;;;9.71;100.00;96291.72;5011542;28;20413;-76
2023/04/24 03:20:46;;;;;;;14.07;5.30;;;10.70;99.90;;;9.69;100.00;96285.16;5010857;28;20901;-76
2023/04/24 03:23:13;;;;;;;15.45;5.43;;;10.70;99.90;;;9.64;100.00;96288.59;5011563;28;20711;-76
2023/04/24 03:25:40;;;;;;;16.33;5.25;;;10.60;99.90;;;9.61;100.00;96286.50;5010169;28;20416;-76
2023/04/24 03:28:06;;;;;;;15.38;5.53;;;10.60;99.90;;;9.61;100.00;96283.88;5011493;28;20416;-76
2023/04/24 03:30:32;;;;;;;18.03;5.77;;;10.60;99.90;;;9.56;100.00;96283.88;5011511;28;20413;-76
2023/04/24 03:32:58;;;;;;;12.20;5.68;;;10.60;99.90;;;9.57;100.00;96284.66;5011517;28;20423;-76
2023/04/24 03:35:24;;;;;;;14.85;5.72;;;10.60;99.90;;;9.62;100.00;96282.03;5009969;28;20511;-76
2023/04/24 03:37:50;;;;;;;20.60;6.13;;;10.60;99.90;;;9.71;100.00;96291.72;5011373;28;20496;-76
2023/04/24 03:40:18;;;;;;;17.58;6.18;;;10.60;99.90;;;9.74;100.00;96282.47;5011259;28;20405;-76
2023/04/24 03:42:44;;;;;;;19.90;5.90;;;10.70;99.90;;;9.61;100.00;96286.50;5011391;28;20404;-76
2023/04/24 03:45:10;;;;;;;14.02;5.80;;;10.60;99.90;;;9.63;100.00;96281.72;5012026;28;20784;-75
2023/04/24 03:47:36;;;;;;;11.23;5.53;;;10.60;99.90;;;9.60;100.00;96274.34;5010568;28;20413;-76
2023/04/24 03:50:03;;;;;;;10.68;4.90;;;10.50;99.90;;;9.49;100.00;96267.53;5010570;28;20829;-76
2023/04/24 03:52:29;;;;;;;15.35;5.60;;;10.50;99.90;;;9.46;100.00;96268.09;5010900;28;20807;-75
2023/04/24 03:54:55;;;;;;;14.15;5.68;;;10.50;99.90;;;9.47;100.00;96277.56;5009495;28;20425;-75
2023/04/24 03:57:22;;;;;;;19.20;5.68;;;10.40;99.90;;;9.48;100.00;96276.50;5011164;28;20408;-75
2023/04/24 03:59:48;;;;;;;11.18;4.93;;;10.40;99.90;;;9.41;100.00;96276.00;5010989;28;20424;-76
2023/04/24 04:02:14;;;;;;;12.07;5.15;;;10.40;99.90;;;9.37;100.00;96279.47;4992105;28;20414;-75
2023/04/24 04:04:40;;;;;;;12.23;5.15;;;10.30;99.90;;;9.29;100.00;96284.25;4991136;28;20896;-76
2023/04/24 04:07:07;;;;;;;16.90;4.97;;;10.30;99.90;;;9.29;100.00;96284.25;4990083;28;20425;-75
2023/04/24 04:09:33;;;;;;;14.32;5.65;;;10.30;99.90;;;9.36;100.00;96285.81;4991624;28;20542;-76
2023/04/24 04:12:00;;;;;;;13.30;5.70;;;10.30;99.90;;;9.44;100.00;96299.25;4991396;28;20409;-76
2023/04/24 04:14:27;;;;;;;11.32;5.82;;;10.40;99.90;;;9.44;100.00;96309.81;4991662;28;20441;-75
2023/04/24 04:16:53;;;;;;;11.45;5.10;;;10.40;99.90;;;9.41;100.00;96314.84;4991398;28;20429;-76
2023/04/24 04:19:19;;;;;;;10.52;4.93;;;10.30;99.90;;;9.47;100.00;96319.06;4991133;28;20442;-75
2023/04/24 04:21:45;;;;;;;11.18;5.00;;;10.40;99.90;;;9.53;100.00;96349.69;5010047;28;20408;-76
2023/04/24 04:24:11;;;;;;;11.57;5.30;;;10.50;99.90;;;9.58;100.00;96361.00;5010534;28;20405;-76
2023/04/24 04:26:38;;;;;;;16.87;5.67;;;10.50;99.90;;;9.66;100.00;96372.88;5006009;28;20410;-76
2023/04/24 04:29:04;;;;;;;10.32;5.25;;;10.50;99.90;;;9.64;100.00;96372.34;4991167;28;20896;-76
2023/04/24 04:31:31;;;;;;;12.83;6.77;;;10.50;99.90;;;9.61;100.00;96368.41;4990640;28;20947;-76
2023/04/24 04:33:57;;;;;;;18.58;6.47;;;10.50;99.90;;;9.49;100.00;96369.75;4994967;28;20892;-76
2023/04/24 04:36:23;;;;;;;12.80;6.27;;;10.40;99.90;;;9.37;100.00;96371.91;4995175;28;20403;-76
2023/04/24 04:38:49;;;;;;;13.32;6.70;;;10.20;99.90;;;9.33;100.00;96371.63;4995327;28;20406;-77
2023/04/24 04:41:18;;;;;;;18.63;7.37;;;10.20;99.90;;;9.22;100.00;96375.38;4995359;28;20992;-77
2023/04/24 04:43:44;;;;;;;16.00;6.82;;;10.20;99.90;;;9.10;100.00;96380.13;4996715;28;20464;-78
2023/04/24 04:46:11;;;;;;;19.95;7.20;;;10.00;99.90;;;8.92;100.00;96378.84;5000676;28;20414;-77
2023/04/24 04:48:38;;;;;;;16.75;7.40;;;9.90;99.90;;;8.91;100.00;96391.22;4999997;28;20410;-77
2023/04/24 04:51:04;;;;;;;21.25;8.27;;;9.90;99.90;;;8.94;100.00;96376.72;4999890;28;20398;-77
2023/04/24 04:53:30;;;;;;;20.13;8.23;;;9.80;99.90;;;8.85;100.00;96387.00;5000195;28;20757;-78
2023/04/24 04:55:56;;;;;;;15.50;7.63;;;9.80;99.90;;;8.69;100.00;96387.25;4998685;28;20394;-75
2023/04/24 04:58:22;;;;;;;18.83;8.10;;;9.70;99.90;;;8.70;100.00;96394.94;4998451;28;20410;-77
2023/04/24 05:00:48;;;;;;;21.17;8.30;;;9.70;99.90;;;8.84;100.00;96398.63;4998852;28;20420;-77
2023/04/24 05:03:14;;;;;;;22.63;8.90;;;9.70;99.90;;;8.74;100.00;96403.88;4999364;28;20493;-77
2023/04/24 05:05:41;;;;;;;27.08;9.48;;;9.70;99.90;;;8.71;100.00;96403.63;4999428;28;20476;-77
2023/04/24 05:08:08;;;;;;;26.48;8.82;;;9.70;99.90;;;8.69;100.00;96403.88;4998034;28;20525;-77
2023/04/24 05:10:34;;;;;;;22.75;8.20;;;9.60;99.90;;;8.57;100.00;96407.84;4997905;28;20507;-77
2023/04/24 05:13:00;;;;;;;24.70;8.65;;;9.50;99.90;;;8.65;100.00;96416.00;4997282;28;20494;-77
2023/04/24 05:15:26;;;;;;;23.10;8.65;;;9.60;99.90;;;8.67;100.00;96421.03;4996504;28;20928;-77
2023/04/24 05:17:52;;;;;;;25.10;9.27;;;9.70;99.90;;;8.76;100.00;96433.44;5001053;28;20406;-78
2023/04/24 05:20:19;;;;;;;23.63;9.52;;;9.70;99.90;;;8.74;100.00;96432.91;5001706;28;20398;-78
2023/04/24 05:22:46;;;;;;;25.33;9.32;;;9.70;99.90;;;8.60;100.00;96429.19;5000403;28;20402;-78
2023/04/24 05:25:12;;;;;;;23.57;8.60;;;9.60;99.90;;;8.60;100.00;96442.38;4997012;28;20438;-77
2023/04/24 05:27:39;;;;;;;24.35;9.77;;;9.60;99.90;;;8.72;100.00;96442.91;5001879;28;20499;-77
2023/04/24 05:30:07;;;;;;;18.00;9.38;;;9.60;99.90;;;8.71;100.00;96444.00;5016143;28;20405;-77
2023/04/24 05:32:33;;;;;;;22.58;9.82;;;9.60;99.90;;;8.70;100.00;96455.59;5014600;28;20408;-77
2023/04/24 05:34:59;;;;;;;25.20;9.55;;;9.60;99.90;;;8.67;100.00;96458.75;5013129;28;20918;-77
2023/04/24 05:37:25;;;;;;;21.30;9.48;;;9.60;99.90;;;8.66;100.00;96462.44;5012994;28;20543;-77
2023/04/24 05:39:53;;;;;;;25.15;9.95;;;9.60;99.90;;;8.71;100.00;96467.75;5014067;28;20409;-77
2023/04/24 05:42:18;;;;;;;23.90;9.55;;;9.70;99.90;;;8.72;100.00;96458.75;5015258;28;20405;-78
2023/04/24 05:44:44;;;;;;;19.48;8.85;;;9.60;99.90;;;8.69;100.00;96467.22;5013303;28;20459;-77
2023/04/24 05:47:10;;;;;;;23.55;9.82;;;9.60;99.90;;;8.80;100.00;96468.00;5014213;28;20412;-77
2023/04/24 05:49:36;;;;;;;25.00;10.38;;;9.70;99.90;;;8.81;100.00;96473.03;5012593;28;20441;-77
2023/04/24 05:52:03;;;;;;;28.75;10.52;;;9.80;99.90;;;8.80;100.00;96470.63;5027286;28;20417;-77
2023/04/24 05:54:29;;;;;;;24.70;9.70;;;9.80;99.90;;;8.80;100.00;96473.28;5013226;28;20893;-77
2023/04/24 05:56:57;;;;;;;19.48;8.30;;;9.80;99.90;;;8.82;100.00;96484.38;5019409;28;20490;-77
2023/04/24 05:59:23;;;;;;;21.77;9.05;;;9.80;99.90;;;8.87;100.00;96482.53;5011837;28;20909;-77
2023/04/24 06:01:48;;;;;;;22.65;11.07;;;9.80;99.90;;;8.92;100.00;96493.09;5013284;28;20413;-77
2023/04/24 06:04:14;;;;;;;23.03;10.43;;;9.80;99.90;;;8.82;100.00;96497.56;5015194;28;20463;-77
2023/04/24 06:06:41;;;;;;;26.15;9.70;;;9.80;99.90;;;8.77;100.00;96492.28;5021222;28;20420;-79
2023/04/24 06:09:07;;;;;;;29.85;10.93;;;9.80;99.90;;;8.78;100.00;96501.78;5020076;28;20407;-78
2023/04/24 06:11:33;;;;;;;30.63;11.23;;;9.80;99.90;;;8.78;100.00;96501.78;5015651;28;20921;-77
2023/04/24 06:14:00;;;;;;;27.88;11.02;;;9.80;99.90;;;8.70;100.00;96491.75;5012820;28;20481;-77
2023/04/24 06:16:26;;;;;;;22.80;9.57;;;9.70;99.90;;;8.72;100.00;96489.66;5009335;28;20532;-77
2023/04/24 06:18:51;;;;;;;27.65;11.63;;;9.60;99.90;;;8.74;100.00;96492.78;5002364;28;20501;-77
2023/04/24 06:21:17;;;;;;;26.60;12.18;;;9.70;99.90;;;8.80;100.00;96489.09;5003802;28;20486;-77
2023/04/24 06:23:43;;;;;;;24.08;11.98;;;9.70;99.90;;;8.80;100.00;96492.53;5003127;28;20417;-77
2023/04/24 06:26:10;;;;;;;28.80;11.40;;;9.60;99.90;;;8.77;100.00;96489.66;5009994;28;20409;-77
2023/04/24 06:28:36;;;;;;;28.05;11.75;;;9.60;99.90;;;8.92;100.00;96481.75;5012317;28;20468;-77
2023/04/24 06:31:03;;;;;;;25.90;9.98;;;9.70;99.90;;;9.16;100.00;96489.97;4999130;28;20401;-76
2023/04/24 06:33:29;;;;;;;26.45;10.15;;;10.00;99.90;;;9.47;100.00;96486.25;5006013;28;20411;-77
2023/04/24 06:35:55;;;;;;;35.72;12.35;;;10.30;99.90;;;9.66;100.00;96492.56;5008821;28;20750;-77
2023/04/24 06:38:21;;;;;;;24.27;10.77;;;10.50;99.90;;;9.78;100.00;96480.91;5012478;28;20569;-77
2023/04/24 06:40:47;;;;;;;27.98;10.70;;;10.60;99.90;;;9.81;100.00;96483.03;5006150;28;20429;-77
2023/04/24 06:43:13;;;;;;;32.55;12.27;;;10.60;99.90;;;9.88;100.00;96480.91;5026668;28;20467;-77
2023/04/24 06:45:39;;;;;;;32.95;11.50;;;10.70;99.90;;;9.94;100.00;96485.09;5012461;28;20405;-76
2023/04/24 06:48:06;;;;;;;17.77;10.10;;;10.70;99.90;;;9.73;100.00;96484.38;5010881;28;20482;-76
2023/04/24 06:50:32;;;;;;;26.15;11.60;;;10.50;99.90;;;9.78;100.00;96492.28;5010612;28;20413;-77
2023/04/24 06:52:58;;;;;;;21.30;9.60;;;10.60;99.90;;;9.67;100.00;96480.16;5010570;28;20420;-76
2023/04/24 06:55:24;;;;;;;20.73;9.73;;;10.40;99.90;;;9.88;100.00;96483.53;5010995;28;20412;-75
2023/04/24 06:57:50;;;;;;;28.55;10.10;;;10.60;99.90;;;10.09;100.00;96485.84;5011404;28;20945;-77
2023/04/24 07:00:16;;;;;;;22.05;9.57;;;10.80;99.90;;;10.20;100.00;96488.50;5009536;28;20657;-77
2023/04/24 07:02:43;;;;;;;17.50;8.00;;;11.00;99.90;;;10.40;100.00;96483.13;5004336;28;20412;-76
2023/04/24 07:05:10;;;;;;;16.37;7.37;;;11.10;99.90;;;10.58;100.00;96487.81;5011250;28;20428;-76
2023/04/24 07:07:37;;;;;;;18.05;7.50;;;11.30;99.90;;;10.36;100.00;96495.31;5010279;28;20405;-76
2023/04/24 07:10:05;;;;;;;16.47;7.50;;;11.10;99.90;;;10.25;100.00;96486.63;5011662;28;20397;-77
2023/04/24 07:12:31;;;;;;;17.45;7.25;;;11.00;99.90;;;10.13;100.00;96488.78;5006635;28;20409;-76
2023/04/24 07:14:57;;;;;;;15.37;7.20;;;10.90;99.90;;;10.23;100.00;96496.69;4990632;28;20418;-74
2023/04/24 07:17:24;;;;;;;18.05;7.20;;;11.00;99.90;;;10.12;100.00;96504.91;4992558;28;20417;-74
2023/04/24 07:19:49;;;;;;;14.25;6.80;;;11.00;99.90;;;10.06;100.00;96504.94;5001562;28;20466;-75
2023/04/24 07:22:17;;;;;;;13.90;6.10;;;10.90;99.90;;;10.11;100.00;96512.03;5002938;28;20484;-75
2023/04/24 07:24:43;;;;;;;9.63;6.03;;;10.80;99.90;;;10.09;100.00;96506.22;5011522;28;20400;-75
2023/04/24 07:27:09;;;;;;;11.23;5.80;;;10.90;99.90;;;10.27;100.00;96521.53;5011910;28;20474;-76
2023/04/24 07:29:35;;;;;;;13.35;5.40;;;10.90;99.90;;;10.25;100.00;96513.06;5011659;28;20405;-75
2023/04/24 07:32:01;;;;;;;9.02;4.63;;;11.00;99.90;;;10.16;100.00;96509.38;5011779;28;20901;-75
2023/04/24 07:34:27;;;;;;;14.13;4.90;;;10.90;99.90;;;10.44;100.00;96515.94;5011464;28;20424;-75
2023/04/24 07:36:53;;;;;;;13.20;4.00;;;11.10;99.90;;;10.48;100.00;96498.44;5011794;28;20432;-75
2023/04/24 07:39:20;;;;;;;13.25;4.32;;;11.20;99.90;;;10.60;100.00;96509.47;5011999;28;20899;-75
2023/04/24 07:41:46;;;;;;;11.53;4.90;;;11.30;99.90;;;10.76;100.00;96521.59;5011368;28;20483;-75
2023/04/24 07:44:12;;;;;;;8.93;3.20;;;11.40;99.90;;;10.55;100.00;96528.03;5011357;28;20412;-75
2023/04/24 07:46:38;;;;;;;9.15;3.58;;;11.20;99.90;;;10.47;100.00;96537.34;5011553;28;20762;-75
2023/04/24 07:49:05;;;;;;;5.68;3.00;;;11.20;99.90;;;10.28;100.00;96532.91;5011609;28;20491;-75
2023/04/24 07:51:33;;;;;;;11.23;3.85;;;11.00;99.90;;;10.26;100.00;96524.44;5011460;28;20484;-75
2023/04/24 07:53:59;;;;;;;9.23;3.60;;;11.00;99.90;;;10.29;100.00;96540.59;5011156;28;20969;-74
2023/04/24 07:56:26;;;;;;;4.97;2.92;;;11.00;99.90;;;10.30;100.00;96541.38;5011584;28;20441;-75
2023/04/24 07:58:52;;;;;;;6.53;2.90;;;11.00;99.90;;;10.38;100.00;96559.31;5011613;28;20803;-75
2023/04/24 08:01:18;;;;;;;7.53;3.60;;;11.00;99.90;;;10.44;100.00;96547.69;5005592;28;20517;-75
2023/04/24 08:03:44;;;;;;;6.63;2.90;;;11.20;99.90;;;10.11;100.00;96559.63;5011504;28;20415;-76
2023/04/24 08:06:10;;;;;;;4.72;2.90;;;10.90;99.90;;;10.07;100.00;96558.59;5010990;28;20412;-76
2023/04/24 08:08:36;;;;;;;9.13;3.30;;;10.80;99.90;;;9.99;100.00;96562.59;5011445;28;20524;-76
2023/04/24 08:11:01;;;;;;;4.60;3.30;;;10.60;99.90;;;9.96;100.00;96578.97;5010873;28;20535;-75
2023/04/24 08:13:29;;;;;;;5.07;3.00;;;10.70;99.90;;;9.84;100.00;96567.88;5011092;28;20492;-77
2023/04/24 08:15:56;;;;;;;9.43;3.13;;;10.60;99.90;;;9.78;100.00;96557.56;5011018;28;20420;-76
2023/04/24 08:18:22;;;;;;;13.10;3.60;;;10.50;99.90;;;9.86;100.00;96564.94;5011624;28;20789;-76
2023/04/24 08:20:48;;;;;;;5.18;2.90;;;10.70;99.90;;;9.86;100.00;96563.09;5010873;28;20409;-75
2023/04/24 08:23:16;;;;;;;5.70;3.60;;;10.70;99.90;;;10.06;100.00;96573.66;5010810;28;20420;-73
2023/04/24 08:25:42;;;;;;;7.25;3.03;;;10.80;99.90;;;10.07;100.00;96572.59;5010858;28;20404;-77
2023/04/24 08:28:10;;;;;;;4.40;2.97;;;10.90;99.90;;;10.39;100.00;96569.63;5010886;28;20416;-76
2023/04/24 08:30:38;;;;;;;6.38;3.53;;;11.10;99.90;;;10.64;100.00;96581.19;5010789;28;20956;-76
2023/04/24 08:33:04;;;;;;;4.50;2.80;;;11.40;99.90;;;10.70;100.00;96575.63;5011614;28;20476;-77
2023/04/24 08:35:30;;;;;;;6.60;2.80;;;11.50;99.90;;;10.77;100.00;96599.94;5013006;28;20471;-76
2023/04/24 08:37:56;;;;;;;7.20;3.00;;;11.50;99.90;;;10.72;100.00;96583.28;5010666;28;20831;-77
2023/04/24 08:40:28;;;;;;;3.92;3.03;;;11.50;99.90;;;10.85;100.00;96593.28;5011124;28;20434;-75
2023/04/24 08:42:56;;;;;;;5.22;2.90;;;11.50;99.90;;;10.76;100.00;96590.41;5025813;28;20775;-75
2023/04/24 08:45:24;;;;;;;8.15;3.10;;;11.50;99.90;;;10.83;100.00;96598.06;5010557;28;20393;-75
2023/04/24 08:47:53;;;;;;;5.72;3.65;;;11.60;99.90;;;10.69;100.00;96612.94;5025337;28;20464;-75
2023/04/24 08:50:19;;;;;;;6.07;3.10;;;11.50;99.90;;;10.59;100.00;96602.41;5010536;28;20409;-74
2023/04/24 08:52:46;;;;;;;5.22;3.63;;;11.40;99.90;;;10.58;100.00;96606.91;5009137;28;20405;-74
2023/04/24 08:55:12;;;;;;;7.10;3.60;;;11.40;99.90;;;10.65;100.00;96604.75;5010332;28;20425;-75
2023/04/24 08:57:40;;;;;;;7.57;3.13;;;11.40;99.90;;;10.63;100.00;96609.53;5010591;28;20437;-76
2023/04/24 09:00:08;;;;;;;5.43;3.38;;;11.40;99.90;;;10.70;100.00;96612.66;5010460;28;20432;-75
2023/04/24 09:02:34;;;;;;;3.83;3.10;;;11.50;99.90;;;10.69;100.00;96612.94;5010467;28;20405;-74
2023/04/24 09:05:03;;;;;;;6.57;3.20;;;11.50;99.90;;;10.70;100.00;96615.31;5010110;28;20411;-74
2023/04/24 09:07:35;;;;;;;3.88;2.60;;;11.50;99.90;;;10.43;100.00;96618.31;5010643;28;20405;-74
2023/04/24 09:10:02;;;;;;;4.97;3.00;;;11.30;99.90;;;10.33;100.00;96631.56;5010528;28;20412;-75
2023/04/24 09:12:28;;;;;;;5.43;3.42;;;11.20;99.90;;;10.24;100.00;96642.94;5025293;28;20463;-74
2023/04/24 09:14:56;;;;;;;7.27;3.87;;;11.10;99.90;;;10.22;100.00;96655.66;5010317;28;20417;-73
2023/04/24 09:17:22;;;;;;;5.22;3.40;;;11.00;99.90;;;10.21;100.00;96651.44;5010441;28;20752;-74
2023/04/24 09:19:49;;;;;;;8.23;3.10;;;11.00;99.90;;;10.12;100.00;96655.63;5012827;28;20419;-74
2023/04/24 09:22:18;;;;;;;6.47;3.20;;;10.90;99.90;;;9.93;100.00;96650.06;5013894;28;20408;-74
2023/04/24 09:24:46;;;;;;;8.02;3.38;;;10.70;99.90;;;9.86;100.00;96652.97;5013726;28;20397;-74
2023/04/24 09:27:12;;;;;;;7.47;3.47;;;10.70;99.90;;;9.86;100.00;96641.59;5012683;28;20421;-74
2023/04/24 09:29:38;;;;;;;4.10;2.77;;;10.70;99.90;;;9.73;100.00;96653.50;5013610;28;20490;-73
2023/04/24 09:32:21;;;;;;;4.85;3.38;;;10.50;99.90;;;9.64;100.00;96660.34;5013815;28;20404;-75
2023/04/24 09:34:48;;;;;;;3.97;3.15;;;10.50;99.90;;;9.88;100.00;96642.94;5013888;28;20428;-75
2023/04/24 09:37:28;;;;;;;7.57;3.55;;;10.70;99.90;;;9.97;100.00;96640.56;5014164;28;20492;-74
2023/04/24 09:40:16;;;;;;;5.20;3.10;;;10.80;99.90;;;10.00;100.00;96643.47;5014010;28;20407;-76
2023/04/24 09:42:45;;;;;;;6.30;3.37;;;10.80;99.90;;;10.42;100.00;96655.63;5013621;28;20902;-75
2023/04/24 09:45:11;;;;;;;7.18;2.60;;;11.10;99.90;;;10.61;100.00;96651.34;5013327;28;20397;-76
2023/04/24 09:47:38;;;;;;;5.80;2.92;;;11.40;99.90;;;10.88;100.00;96647.56;5013273;28;20412;-77
2023/04/24 09:50:12;;;;;;;4.93;2.37;;;11.70;99.90;;;10.83;100.00;96664.25;5013226;28;20459;-76
2023/04/24 09:52:43;;;;;;;8.52;3.10;;;11.60;99.90;;;11.11;100.00;96649.59;5013265;28;20412;-76
2023/04/24 09:55:19;;;;;;;4.22;2.58;;;11.80;99.90;;;11.17;100.00;96662.53;5013336;28;20778;-75
2023/04/24 09:57:54;;;;;;;4.55;2.50;;;11.90;99.90;;;11.39;100.00;96669.31;5005910;28;20410;-77
2023/04/24 10:00:23;;;;;;;5.82;2.53;;;12.10;99.90;;;11.70;100.00;96657.47;4995613;28;20418;-77
2023/04/24 10:02:58;;;;;;;2.85;2.17;;;12.40;99.90;;;11.69;100.00;96676.28;4994024;28;20410;-77
2023/04/24 10:05:27;;;;;;;8.05;2.45;;;12.40;99.90;;;11.84;100.00;96666.41;4995130;28;20417;-78
2023/04/24 10:08:00;;;;;;;7.68;2.58;;;12.70;99.90;;;11.81;100.00;96674.91;4995267;28;20446;-77